Main page
METAR-TAF:

METAR-TAF

Airports :

Istanbul Atatürk, Turkey

Istanbul Atatürk Airport

latitude: 40-58N, longitude: 028-49E, elevation: 48 m

Current weather observation

The report was made 45 minutes ago, at 16:20 UTC
Wind 5 kt from the South, varying between Southeast and South/Southwest
Temperature 27°C
Humidity 54%
Pressure 1013 hPa
Visibility 10 km or more
no clouds below 1500 m and no cumulonimbus

METAR: LTBA 231620Z 18005KT 140V210 CAVOK 27/17 Q1013 NOSIG RMK RWY17L 20007KT RWY05 13004KT RWY23 15005KT

Time: 20:05 (17:05 UTC)

Forecast

The report was made 6 hours and 25 minutes ago, at 10:40 UTC
Forecast valid from 23 at 12 UTC to 24 at 18 UTC
Wind 9 kt from the Southwest
Visibility 10 km or more
no clouds below 1500 m and no cumulonimbus
Becoming
from 24 at 09 UTC to 24 at 12 UTC
Scattered clouds at a height of 4000 ft

TAF: LTBA 231040Z 2312/2418 22009KT CAVOK BECMG 2409/2412 SCT040

Weather observations and forecasts of more than 4000 airports (METAR and TAF reports).

The available stations are represented by yellow and red dots on the map.

Hover mouse over dot to see the name of the station.

Then click to see weather observations and forecasts.

To change the map : click on the green buttons with a black cross to zoom in, on the green button with a dash to zoom out, or on the green arrows for adjacent maps.


METAR-TAF: